Hlavní strana
METAR-TAF:

METAR-TAF

Letiště :

Indianapolis, Indiana, Spojené státy americké

zeměpisná šířka: 40-01-50N, zeměpisná délka: 086-15-05W, výška: 281 m

Aktuální stav počasí

Zpráva byla vytvořena před 25 minutami, v 18:15 UTC
Severozápadní vítr 11 kt s nárazy do 18 kt
Teplota 2°C
Vlhkost vzduchu 100%
Tlak 1021 hPa
Viditelnost: 16.1 km
Zataženo ve výšce 1400 ft

METAR: KTYQ 181815Z AUTO 31011G18KT 10SM OVC014 02/02 A3014 RMK AO2 T00200019

Čas: 11:40 (18:40 UTC)


TAF: chybějící

Stav a předpovědi počasí z více než 4 000 letišť (zprávy METAR a TAF).

Červené a žluté tečky na mapě představují dostupné meteorologické stanice.

Když kurzor umístíte na tečku, zobrazí se název stanice.

Pak kliknutím zobrazíte stav a předpověď počasí.

Chcete-li změnit mapu, kliknutím na zelené tlačítko se znaménkem +mapu přiblížíte, kliknutím na zelené tlačítko se znaménkem – mapu oddálíte a kliknutím na zelené šipky přejdete na sousední mapy.


METAR-TAF: